createdAt,value
2023-02-05T00:01:29.076Z,1.20
2023-02-05T00:03:56.253Z,1.10
2023-02-05T00:06:23.362Z,1.10
2023-02-05T00:08:50.938Z,1.10
2023-02-05T00:11:31.520Z,1.10
2023-02-05T00:14:04.863Z,1.10
2023-02-05T00:16:39.100Z,1.10
2023-02-05T00:19:08.840Z,1.10
2023-02-05T00:21:36.294Z,1.10
2023-02-05T00:24:03.399Z,1.10
2023-02-05T00:26:30.488Z,1.00
2023-02-05T00:28:57.846Z,1.10
2023-02-05T00:31:25.579Z,1.00
2023-02-05T00:33:52.957Z,1.10
2023-02-05T00:36:21.594Z,1.10
2023-02-05T00:38:49.047Z,1.00
2023-02-05T00:41:17.151Z,1.00
2023-02-05T00:43:44.555Z,1.00
2023-02-05T00:46:13.676Z,1.00
2023-02-05T00:48:41.506Z,1.00
2023-02-05T00:51:09.595Z,1.00
2023-02-05T00:53:36.814Z,1.00
2023-02-05T00:56:03.961Z,1.00
2023-02-05T00:58:31.105Z,0.90
2023-02-05T01:00:58.142Z,0.90
2023-02-05T01:03:25.068Z,0.90
2023-02-05T01:05:51.962Z,0.90
2023-02-05T01:08:18.818Z,1.00
2023-02-05T01:10:47.494Z,0.90
2023-02-05T01:13:17.688Z,0.90
2023-02-05T01:15:45.708Z,1.00
2023-02-05T01:18:13.302Z,0.80
2023-02-05T01:20:41.635Z,0.90
2023-02-05T01:23:09.332Z,1.00
2023-02-05T01:25:36.659Z,0.80
2023-02-05T01:28:04.501Z,0.90
2023-02-05T01:30:31.437Z,0.90
2023-02-05T01:32:58.401Z,0.80
2023-02-05T01:35:25.354Z,0.90
2023-02-05T01:37:52.280Z,1.00
2023-02-05T01:40:22.210Z,0.90
2023-02-05T01:42:49.141Z,1.00
2023-02-05T01:45:22.139Z,1.00
2023-02-05T01:47:57.683Z,1.00
2023-02-05T01:50:27.095Z,1.10
2023-02-05T01:52:55.375Z,1.10
2023-02-05T01:55:22.330Z,1.10
2023-02-05T01:57:50.844Z,1.10
2023-02-05T02:00:18.020Z,1.10
2023-02-05T02:02:45.643Z,1.10
2023-02-05T02:05:15.739Z,1.20
2023-02-05T02:07:42.943Z,1.20
2023-02-05T02:10:12.879Z,1.20
2023-02-05T02:12:43.827Z,1.10
2023-02-05T02:15:21.009Z,1.10
2023-02-05T02:17:52.439Z,1.10
2023-02-05T02:20:22.666Z,1.10
2023-02-05T02:23:08.252Z,1.10
2023-02-05T02:25:59.919Z,1.30
2023-02-05T02:28:52.176Z,1.10
2023-02-05T02:31:35.041Z,1.00
2023-02-05T02:34:11.493Z,1.10
2023-02-05T02:37:17.737Z,1.10
2023-02-05T02:40:11.336Z,1.00
2023-02-05T02:42:45.031Z,1.00
2023-02-05T02:45:14.467Z,1.20
2023-02-05T02:47:48.171Z,1.10
2023-02-05T02:50:22.766Z,1.10
2023-02-05T02:52:52.147Z,1.00
2023-02-05T02:55:20.452Z,1.00
2023-02-05T02:57:49.241Z,1.00
2023-02-05T03:00:19.975Z,1.10
2023-02-05T03:02:49.706Z,1.10
2023-02-05T03:05:19.864Z,1.00
2023-02-05T03:07:57.131Z,1.00
2023-02-05T03:10:27.215Z,1.00
2023-02-05T03:12:57.051Z,1.00
2023-02-05T03:15:25.665Z,1.00
2023-02-05T03:18:04.978Z,1.00
2023-02-05T03:20:39.938Z,0.90
2023-02-05T03:23:08.504Z,0.90
2023-02-05T03:25:37.412Z,0.90
2023-02-05T03:28:06.273Z,1.00
2023-02-05T03:30:55.352Z,0.90
2023-02-05T03:33:55.409Z,1.00
2023-02-05T03:36:41.493Z,0.90
2023-02-05T03:39:18.768Z,0.90
2023-02-05T03:42:07.380Z,0.90
2023-02-05T03:44:57.210Z,0.90
2023-02-05T03:47:41.864Z,0.90
2023-02-05T03:50:34.276Z,0.80
2023-02-05T03:53:23.441Z,0.90
2023-02-05T03:56:07.088Z,0.90
2023-02-05T03:58:48.980Z,0.80
2023-02-05T04:01:20.160Z,0.80
2023-02-05T04:03:49.025Z,0.80
2023-02-05T04:06:17.164Z,0.80
2023-02-05T04:08:45.092Z,0.90
2023-02-05T04:11:14.561Z,0.80
2023-02-05T04:13:42.828Z,0.60
2023-02-05T04:16:11.025Z,0.90
2023-02-05T04:18:39.015Z,0.70
2023-02-05T04:21:07.013Z,0.90
2023-02-05T04:23:35.478Z,0.80
2023-02-05T04:26:04.285Z,1.00
2023-02-05T04:28:32.710Z,1.00
2023-02-05T04:31:00.994Z,1.00
2023-02-05T04:33:28.720Z,1.00
2023-02-05T04:36:01.262Z,1.00
2023-02-05T04:38:29.536Z,0.90
2023-02-05T04:40:57.903Z,1.00
2023-02-05T04:43:26.033Z,1.10
2023-02-05T04:45:53.827Z,0.90
2023-02-05T04:48:21.901Z,1.10
2023-02-05T04:50:49.640Z,1.10
2023-02-05T04:53:17.305Z,1.10
2023-02-05T04:55:45.471Z,1.10
2023-02-05T04:58:13.021Z,1.20
2023-02-05T05:00:40.723Z,1.20
2023-02-05T05:03:09.015Z,1.20
2023-02-05T05:05:37.061Z,1.40
2023-02-05T05:08:05.031Z,1.10
2023-02-05T05:10:32.961Z,1.30
2023-02-05T05:13:01.167Z,1.40
2023-02-05T05:15:29.311Z,1.30
2023-02-05T05:17:57.082Z,1.30
2023-02-05T05:20:25.054Z,1.40
2023-02-05T05:22:53.354Z,1.40
2023-02-05T05:25:21.422Z,1.40
2023-02-05T05:27:50.102Z,1.30
2023-02-05T05:30:18.501Z,1.50
2023-02-05T05:32:46.383Z,1.50
2023-02-05T05:35:14.587Z,1.50
2023-02-05T05:37:42.583Z,1.60
2023-02-05T05:40:31.469Z,1.60
2023-02-05T05:43:18.343Z,1.80
2023-02-05T05:45:46.110Z,1.70
2023-02-05T05:48:13.896Z,1.80
2023-02-05T05:50:42.467Z,1.80
2023-02-05T05:53:10.476Z,1.80
2023-02-05T05:55:38.221Z,1.60
2023-02-05T05:58:07.151Z,1.80
2023-02-05T06:00:35.100Z,1.70
2023-02-05T06:03:02.860Z,1.80
2023-02-05T06:05:31.101Z,1.70
2023-02-05T06:07:59.398Z,1.90
2023-02-05T06:10:27.128Z,1.90
2023-02-05T06:12:56.012Z,2.00
2023-02-05T06:15:23.982Z,2.10
2023-02-05T06:17:51.972Z,2.10
2023-02-05T06:20:21.121Z,2.10
2023-02-05T06:22:49.550Z,2.10
2023-02-05T06:25:18.120Z,2.20
2023-02-05T06:27:45.927Z,2.10
2023-02-05T06:30:14.049Z,2.10
2023-02-05T06:32:41.980Z,2.10
2023-02-05T06:35:09.302Z,2.20
2023-02-05T06:37:47.016Z,2.30
2023-02-05T06:40:18.351Z,2.20
2023-02-05T06:42:45.691Z,2.20
2023-02-05T06:45:12.630Z,2.30
2023-02-05T06:47:39.859Z,2.30
2023-02-05T06:50:07.578Z,2.30
2023-02-05T06:52:34.724Z,2.40
2023-02-05T06:55:02.386Z,2.50
2023-02-05T06:57:32.286Z,2.50
2023-02-05T07:00:00.360Z,2.40
2023-02-05T07:02:28.296Z,2.50
2023-02-05T07:04:56.040Z,2.50
2023-02-05T07:07:23.771Z,2.50
2023-02-05T07:09:51.605Z,2.40
2023-02-05T07:12:19.376Z,2.50
2023-02-05T07:14:47.079Z,2.60
2023-02-05T07:17:15.141Z,2.50
2023-02-05T07:19:43.286Z,2.60
2023-02-05T07:22:14.790Z,2.50
2023-02-05T07:24:43.249Z,2.50
2023-02-05T07:27:11.476Z,2.50
2023-02-05T07:29:39.524Z,2.50
2023-02-05T07:32:09.771Z,2.60
2023-02-05T07:34:44.320Z,2.60
2023-02-05T07:37:13.929Z,2.60
2023-02-05T07:39:42.745Z,2.50
2023-02-05T07:42:10.515Z,2.70
2023-02-05T07:44:41.250Z,2.70
2023-02-05T07:47:12.682Z,2.70
2023-02-05T07:49:40.828Z,2.80
2023-02-05T07:52:08.668Z,2.60
2023-02-05T07:54:40.671Z,2.80
2023-02-05T07:57:08.934Z,2.90
2023-02-05T07:59:41.849Z,2.90
2023-02-05T08:04:57.430Z,3.00
2023-02-05T08:07:25.838Z,3.00
2023-02-05T08:09:55.431Z,3.10
2023-02-05T08:12:24.558Z,3.20
2023-02-05T08:14:53.499Z,3.10
2023-02-05T08:17:21.896Z,3.10
2023-02-05T08:19:51.706Z,3.30
2023-02-05T08:22:19.763Z,3.10
2023-02-05T08:24:48.160Z,3.10
2023-02-05T08:27:16.615Z,3.30
2023-02-05T08:29:49.149Z,3.40
2023-02-05T08:32:17.498Z,3.40
2023-02-05T08:34:46.117Z,3.40
2023-02-05T08:37:14.552Z,3.50
2023-02-05T08:39:43.110Z,3.50
2023-02-05T08:42:11.527Z,3.70
2023-02-05T08:44:40.223Z,3.50
2023-02-05T08:47:08.355Z,3.60
2023-02-05T08:49:40.968Z,3.60
2023-02-05T09:07:19.942Z,3.90
2023-02-05T09:21:24.941Z,4.30
2023-02-05T09:23:54.745Z,4.10
2023-02-05T09:26:28.039Z,4.20
2023-02-05T09:28:56.932Z,4.20
2023-02-05T09:31:33.580Z,4.20
2023-02-05T09:37:07.626Z,4.30
2023-02-05T12:26:57.842Z,8.30
2023-02-05T12:29:42.217Z,8.30
2023-02-05T12:35:05.160Z,8.30
2023-02-05T12:59:12.696Z,8.20
2023-02-05T17:17:54.696Z,3.00
2023-02-05T17:20:43.476Z,3.00
2023-02-05T17:23:21.595Z,3.20
2023-02-05T17:26:26.590Z,3.10
2023-02-05T17:29:00.124Z,3.20
2023-02-05T17:31:34.830Z,3.20
2023-02-05T17:37:12.719Z,3.40
2023-02-05T17:42:35.265Z,3.40
2023-02-05T17:53:54.880Z,3.60
2023-02-05T18:33:10.917Z,3.90
2023-02-05T18:35:51.127Z,3.90
2023-02-05T18:47:40.833Z,3.90
2023-02-05T21:08:01.780Z,4.60
2023-02-05T21:10:28.790Z,4.50
2023-02-05T21:12:55.789Z,4.50
2023-02-05T21:15:23.586Z,4.60
2023-02-05T21:17:50.520Z,4.60
2023-02-05T21:20:17.423Z,4.60
2023-02-05T21:22:59.706Z,4.60
2023-02-05T21:25:27.204Z,4.60
2023-02-05T21:27:54.168Z,4.60
2023-02-05T21:30:21.088Z,4.60
2023-02-05T21:32:48.007Z,4.60
2023-02-05T21:35:15.017Z,4.60
2023-02-05T21:37:44.318Z,4.60
2023-02-05T21:40:11.796Z,4.80
2023-02-05T21:42:38.711Z,4.70
2023-02-05T21:45:06.476Z,4.80
2023-02-05T21:47:33.340Z,4.70
2023-02-05T21:50:00.185Z,4.70
2023-02-05T21:52:27.162Z,4.70
2023-02-05T21:54:54.063Z,4.70
2023-02-05T21:57:24.903Z,4.70
2023-02-05T21:59:52.126Z,4.60
2023-02-05T22:02:19.034Z,4.60
2023-02-05T22:04:45.900Z,4.60
2023-02-05T22:07:12.836Z,4.50
2023-02-05T22:09:39.797Z,4.40
2023-02-05T22:12:06.759Z,4.40
2023-02-05T22:14:34.154Z,4.40
2023-02-05T22:17:01.344Z,4.60
2023-02-05T22:19:28.480Z,4.40
2023-02-05T22:21:55.298Z,4.40
2023-02-05T22:24:25.381Z,4.30
2023-02-05T22:26:53.002Z,4.20
2023-02-05T22:29:20.795Z,4.10
2023-02-05T22:31:52.528Z,4.00
2023-02-05T22:34:19.939Z,3.90
2023-02-05T22:36:47.316Z,3.80
2023-02-05T22:39:14.169Z,3.80
2023-02-05T22:41:42.595Z,3.70
2023-02-05T22:44:11.192Z,3.60
2023-02-05T22:46:40.902Z,3.60
2023-02-05T22:49:08.049Z,3.50
2023-02-05T22:51:38.246Z,3.60
2023-02-05T22:54:07.432Z,3.60
2023-02-05T22:56:34.564Z,3.70
2023-02-05T22:59:03.414Z,3.80
2023-02-05T23:01:33.805Z,3.90
2023-02-05T23:04:02.692Z,3.90
2023-02-05T23:06:35.904Z,4.00
2023-02-05T23:09:05.137Z,4.10
2023-02-05T23:11:33.166Z,4.30
2023-02-05T23:14:00.920Z,4.20
2023-02-05T23:16:31.195Z,4.20
2023-02-05T23:19:04.412Z,4.30
2023-02-05T23:21:33.281Z,4.30
2023-02-05T23:24:00.205Z,4.30
2023-02-05T23:26:31.518Z,4.30
2023-02-05T23:28:59.177Z,4.40
2023-02-05T23:31:26.726Z,4.40
2023-02-05T23:33:54.157Z,4.40
2023-02-05T23:36:21.331Z,4.40
2023-02-05T23:38:48.759Z,4.50
2023-02-05T23:41:35.182Z,4.60
2023-02-05T23:44:13.446Z,4.40
2023-02-05T23:46:41.791Z,4.50
2023-02-05T23:49:08.928Z,4.60
2023-02-05T23:51:36.183Z,4.60
2023-02-05T23:54:04.034Z,4.50
2023-02-05T23:56:31.597Z,4.50
2023-02-05T23:58:59.322Z,4.50
